Edmundson, Missouri
Current Conditions -  °F | °C
As of 12:51 PM on Tuesday 27 Jan 2015 (Local Time) from KSTL Reporting Station
Overcast Overcast  
Wind Chill: 39°   Ceiling: 2600
Heat Index: 44°   Visibility: 10mi
Dew Point: 31°   Wind: 9mph
Humidity: 60%   Direction: 10°N
Pressure: 30.15"   Gusts: NA
Location:  38.7422°N, 90.3457°W
Report Text: KSTL 271851Z 01008KT 10SM OVC026 07/M01 A3015 RMK AO2 SLP217 T00671006
Loading
Personal Weather Stations






























Interactive Weather Map New forecast layout! Learn more

10-Day Weather Forecast

Advertisements
Track Severe Weather on mobile